sensor_id;sensor_type;location;lat;lon;timestamp;P1;durP1;ratioP1;P2;durP2;ratioP2
15385;SDS011;7791;47.246;9.648;2023-05-10T00:01:28;0.60;;;0.60;;
15385;SDS011;7791;47.246;9.648;2023-05-10T00:03:58;2.80;;;0.40;;
15385;SDS011;7791;47.246;9.648;2023-05-10T00:06:40;1.30;;;0.70;;
15385;SDS011;7791;47.246;9.648;2023-05-10T00:11:58;0.80;;;0.50;;
15385;SDS011;7791;47.246;9.648;2023-05-10T00:14:28;1.90;;;0.47;;
15385;SDS011;7791;47.246;9.648;2023-05-10T00:17:06;1.90;;;0.70;;
15385;SDS011;7791;47.246;9.648;2023-05-10T00:19:47;2.40;;;0.83;;
15385;SDS011;7791;47.246;9.648;2023-05-10T00:22:27;3.37;;;0.70;;
15385;SDS011;7791;47.246;9.648;2023-05-10T00:24:59;0.93;;;0.53;;
15385;SDS011;7791;47.246;9.648;2023-05-10T00:27:28;0.57;;;0.47;;
15385;SDS011;7791;47.246;9.648;2023-05-10T00:30:11;0.73;;;0.30;;
15385;SDS011;7791;47.246;9.648;2023-05-10T00:32:48;0.80;;;0.37;;
15385;SDS011;7791;47.246;9.648;2023-05-10T00:35:32;0.50;;;0.47;;
15385;SDS011;7791;47.246;9.648;2023-05-10T00:38:08;1.77;;;0.40;;
15385;SDS011;7791;47.246;9.648;2023-05-10T00:40:43;1.23;;;0.40;;
15385;SDS011;7791;47.246;9.648;2023-05-10T00:43:18;0.73;;;0.37;;
15385;SDS011;7791;47.246;9.648;2023-05-10T00:45:58;2.50;;;0.40;;
15385;SDS011;7791;47.246;9.648;2023-05-10T00:48:30;0.57;;;0.40;;
15385;SDS011;7791;47.246;9.648;2023-05-10T00:51:02;0.80;;;0.50;;
15385;SDS011;7791;47.246;9.648;2023-05-10T00:53:33;0.57;;;0.47;;
15385;SDS011;7791;47.246;9.648;2023-05-10T00:58:50;0.50;;;0.40;;
15385;SDS011;7791;47.246;9.648;2023-05-10T01:01:18;0.70;;;0.50;;
15385;SDS011;7791;47.246;9.648;2023-05-10T01:03:46;3.53;;;1.50;;
15385;SDS011;7791;47.246;9.648;2023-05-10T01:06:22;2.77;;;0.60;;
15385;SDS011;7791;47.246;9.648;2023-05-10T01:08:56;1.77;;;0.87;;
15385;SDS011;7791;47.246;9.648;2023-05-10T01:11:38;0.80;;;0.50;;
15385;SDS011;7791;47.246;9.648;2023-05-10T01:14:15;0.80;;;0.40;;
15385;SDS011;7791;47.246;9.648;2023-05-10T01:16:50;1.13;;;0.60;;
15385;SDS011;7791;47.246;9.648;2023-05-10T01:19:30;1.10;;;0.50;;
15385;SDS011;7791;47.246;9.648;2023-05-10T01:22:09;1.03;;;0.40;;
15385;SDS011;7791;47.246;9.648;2023-05-10T01:25:15;1.10;;;0.53;;
15385;SDS011;7791;47.246;9.648;2023-05-10T01:31:02;0.30;;;0.20;;
15385;SDS011;7791;47.246;9.648;2023-05-10T01:33:43;0.80;;;0.50;;
15385;SDS011;7791;47.246;9.648;2023-05-10T01:36:23;0.73;;;0.30;;
15385;SDS011;7791;47.246;9.648;2023-05-10T01:39:11;1.20;;;0.40;;
15385;SDS011;7791;47.246;9.648;2023-05-10T01:41:51;2.57;;;0.30;;
15385;SDS011;7791;47.246;9.648;2023-05-10T01:47:23;0.50;;;0.30;;
15385;SDS011;7791;47.246;9.648;2023-05-10T01:50:15;0.43;;;0.30;;
15385;SDS011;7791;47.246;9.648;2023-05-10T01:52:49;0.20;;;0.20;;
15385;SDS011;7791;47.246;9.648;2023-05-10T01:55:32;1.03;;;0.30;;
15385;SDS011;7791;47.246;9.648;2023-05-10T01:58:07;2.33;;;0.40;;
15385;SDS011;7791;47.246;9.648;2023-05-10T02:00:34;0.67;;;0.30;;
15385;SDS011;7791;47.246;9.648;2023-05-10T02:03:10;1.83;;;0.50;;
15385;SDS011;7791;47.246;9.648;2023-05-10T02:05:52;0.87;;;0.50;;
15385;SDS011;7791;47.246;9.648;2023-05-10T02:08:27;1.77;;;0.30;;
15385;SDS011;7791;47.246;9.648;2023-05-10T02:11:00;1.77;;;0.50;;
15385;SDS011;7791;47.246;9.648;2023-05-10T02:13:39;0.83;;;0.50;;
15385;SDS011;7791;47.246;9.648;2023-05-10T02:16:13;0.50;;;0.50;;
15385;SDS011;7791;47.246;9.648;2023-05-10T02:18:52;0.60;;;0.47;;
15385;SDS011;7791;47.246;9.648;2023-05-10T02:21:28;3.33;;;0.50;;
15385;SDS011;7791;47.246;9.648;2023-05-10T02:24:12;0.33;;;0.30;;
15385;SDS011;7791;47.246;9.648;2023-05-10T02:26:46;0.57;;;0.40;;
15385;SDS011;7791;47.246;9.648;2023-05-10T02:29:28;1.50;;;0.50;;
15385;SDS011;7791;47.246;9.648;2023-05-10T02:32:07;1.20;;;0.50;;
15385;SDS011;7791;47.246;9.648;2023-05-10T02:34:42;0.67;;;0.50;;
15385;SDS011;7791;47.246;9.648;2023-05-10T02:37:21;1.33;;;0.50;;
15385;SDS011;7791;47.246;9.648;2023-05-10T02:39:57;0.93;;;0.50;;
15385;SDS011;7791;47.246;9.648;2023-05-10T02:42:37;0.83;;;0.40;;
15385;SDS011;7791;47.246;9.648;2023-05-10T02:45:18;1.43;;;0.50;;
15385;SDS011;7791;47.246;9.648;2023-05-10T02:47:48;0.83;;;0.53;;
15385;SDS011;7791;47.246;9.648;2023-05-10T02:50:21;0.70;;;0.50;;
15385;SDS011;7791;47.246;9.648;2023-05-10T02:55:58;1.10;;;0.43;;
15385;SDS011;7791;47.246;9.648;2023-05-10T02:58:42;1.07;;;0.50;;
15385;SDS011;7791;47.246;9.648;2023-05-10T03:01:15;1.07;;;0.40;;
15385;SDS011;7791;47.246;9.648;2023-05-10T03:03:45;1.70;;;0.50;;
15385;SDS011;7791;47.246;9.648;2023-05-10T03:06:14;2.40;;;0.50;;
15385;SDS011;7791;47.246;9.648;2023-05-10T03:08:53;0.60;;;0.40;;
15385;SDS011;7791;47.246;9.648;2023-05-10T03:11:43;1.50;;;0.47;;
15385;SDS011;7791;47.246;9.648;2023-05-10T03:14:31;1.43;;;0.47;;
15385;SDS011;7791;47.246;9.648;2023-05-10T03:17:22;0.77;;;0.30;;
15385;SDS011;7791;47.246;9.648;2023-05-10T03:20:08;2.30;;;0.30;;
15385;SDS011;7791;47.246;9.648;2023-05-10T03:22:50;2.47;;;0.43;;
15385;SDS011;7791;47.246;9.648;2023-05-10T03:25:37;1.50;;;0.40;;
15385;SDS011;7791;47.246;9.648;2023-05-10T03:28:13;3.00;;;0.50;;
15385;SDS011;7791;47.246;9.648;2023-05-10T03:30:57;1.97;;;0.50;;
15385;SDS011;7791;47.246;9.648;2023-05-10T03:33:29;1.20;;;0.40;;
15385;SDS011;7791;47.246;9.648;2023-05-10T03:36:01;1.23;;;0.60;;
15385;SDS011;7791;47.246;9.648;2023-05-10T03:38:29;2.20;;;0.50;;
15385;SDS011;7791;47.246;9.648;2023-05-10T03:41:05;1.17;;;0.50;;
15385;SDS011;7791;47.246;9.648;2023-05-10T03:43:41;0.77;;;0.40;;
15385;SDS011;7791;47.246;9.648;2023-05-10T03:46:10;1.43;;;0.40;;
15385;SDS011;7791;47.246;9.648;2023-05-10T03:48:44;1.33;;;0.50;;
15385;SDS011;7791;47.246;9.648;2023-05-10T03:51:21;0.60;;;0.57;;
15385;SDS011;7791;47.246;9.648;2023-05-10T03:53:57;1.50;;;0.70;;
15385;SDS011;7791;47.246;9.648;2023-05-10T03:56:37;0.50;;;0.40;;
15385;SDS011;7791;47.246;9.648;2023-05-10T03:59:07;0.70;;;0.60;;
15385;SDS011;7791;47.246;9.648;2023-05-10T04:04:32;0.57;;;0.50;;
15385;SDS011;7791;47.246;9.648;2023-05-10T04:07:04;1.23;;;0.43;;
15385;SDS011;7791;47.246;9.648;2023-05-10T04:09:42;0.77;;;0.40;;
15385;SDS011;7791;47.246;9.648;2023-05-10T04:12:13;4.43;;;0.53;;
15385;SDS011;7791;47.246;9.648;2023-05-10T04:14:48;2.60;;;0.57;;
15385;SDS011;7791;47.246;9.648;2023-05-10T04:17:21;1.17;;;0.50;;
15385;SDS011;7791;47.246;9.648;2023-05-10T04:19:49;0.60;;;0.40;;
15385;SDS011;7791;47.246;9.648;2023-05-10T04:22:14;0.73;;;0.40;;
15385;SDS011;7791;47.246;9.648;2023-05-10T04:24:50;2.40;;;0.80;;
15385;SDS011;7791;47.246;9.648;2023-05-10T04:27:20;3.57;;;0.80;;
15385;SDS011;7791;47.246;9.648;2023-05-10T04:29:57;1.40;;;1.03;;
15385;SDS011;7791;47.246;9.648;2023-05-10T04:32:29;2.30;;;1.20;;
15385;SDS011;7791;47.246;9.648;2023-05-10T04:34:58;6.83;;;3.30;;
15385;SDS011;7791;47.246;9.648;2023-05-10T04:37:30;3.17;;;1.90;;
15385;SDS011;7791;47.246;9.648;2023-05-10T04:39:58;2.30;;;1.10;;
15385;SDS011;7791;47.246;9.648;2023-05-10T04:42:26;1.33;;;0.83;;
15385;SDS011;7791;47.246;9.648;2023-05-10T04:45:04;3.57;;;0.77;;
15385;SDS011;7791;47.246;9.648;2023-05-10T04:47:35;4.27;;;1.00;;
15385;SDS011;7791;47.246;9.648;2023-05-10T04:50:09;3.50;;;0.70;;
15385;SDS011;7791;47.246;9.648;2023-05-10T04:52:39;3.20;;;1.60;;
15385;SDS011;7791;47.246;9.648;2023-05-10T04:55:17;2.07;;;1.20;;
15385;SDS011;7791;47.246;9.648;2023-05-10T04:57:46;2.83;;;1.30;;
15385;SDS011;7791;47.246;9.648;2023-05-10T05:00:24;1.33;;;1.00;;
15385;SDS011;7791;47.246;9.648;2023-05-10T05:03:00;7.93;;;5.13;;
15385;SDS011;7791;47.246;9.648;2023-05-10T05:05:32;1.87;;;1.13;;
15385;SDS011;7791;47.246;9.648;2023-05-10T05:08:00;1.80;;;1.37;;
15385;SDS011;7791;47.246;9.648;2023-05-10T05:13:17;2.00;;;1.13;;
15385;SDS011;7791;47.246;9.648;2023-05-10T05:15:49;2.03;;;0.90;;
15385;SDS011;7791;47.246;9.648;2023-05-10T05:18:25;2.03;;;1.00;;
15385;SDS011;7791;47.246;9.648;2023-05-10T05:21:02;1.93;;;1.10;;
15385;SDS011;7791;47.246;9.648;2023-05-10T05:23:53;2.30;;;1.00;;
15385;SDS011;7791;47.246;9.648;2023-05-10T05:26:25;1.53;;;1.00;;
15385;SDS011;7791;47.246;9.648;2023-05-10T05:28:55;1.63;;;0.80;;
15385;SDS011;7791;47.246;9.648;2023-05-10T05:31:26;3.80;;;1.70;;
15385;SDS011;7791;47.246;9.648;2023-05-10T05:34:01;3.90;;;2.97;;
15385;SDS011;7791;47.246;9.648;2023-05-10T05:36:27;3.40;;;1.70;;
15385;SDS011;7791;47.246;9.648;2023-05-10T05:41:56;1.97;;;1.40;;
15385;SDS011;7791;47.246;9.648;2023-05-10T05:47:07;0.50;;;0.50;;
15385;SDS011;7791;47.246;9.648;2023-05-10T05:49:39;0.80;;;0.60;;
15385;SDS011;7791;47.246;9.648;2023-05-10T05:52:07;3.60;;;1.87;;
15385;SDS011;7791;47.246;9.648;2023-05-10T05:54:44;2.03;;;1.30;;
15385;SDS011;7791;47.246;9.648;2023-05-10T05:57:12;1.93;;;1.20;;
15385;SDS011;7791;47.246;9.648;2023-05-10T05:59:37;0.60;;;0.50;;
15385;SDS011;7791;47.246;9.648;2023-05-10T06:02:06;1.17;;;0.90;;
15385;SDS011;7791;47.246;9.648;2023-05-10T06:04:42;0.50;;;0.47;;
15385;SDS011;7791;47.246;9.648;2023-05-10T06:07:12;1.77;;;0.73;;
15385;SDS011;7791;47.246;9.648;2023-05-10T06:09:40;0.50;;;0.50;;
15385;SDS011;7791;47.246;9.648;2023-05-10T06:12:13;2.17;;;1.70;;
15385;SDS011;7791;47.246;9.648;2023-05-10T06:15:00;4.03;;;2.43;;
15385;SDS011;7791;47.246;9.648;2023-05-10T06:17:34;1.60;;;1.10;;
15385;SDS011;7791;47.246;9.648;2023-05-10T06:20:16;3.30;;;1.40;;
15385;SDS011;7791;47.246;9.648;2023-05-10T06:22:50;1.20;;;0.90;;
15385;SDS011;7791;47.246;9.648;2023-05-10T06:25:24;1.17;;;0.90;;
15385;SDS011;7791;47.246;9.648;2023-05-10T06:27:57;2.07;;;1.00;;
15385;SDS011;7791;47.246;9.648;2023-05-10T06:30:39;0.83;;;0.70;;
15385;SDS011;7791;47.246;9.648;2023-05-10T06:33:14;1.37;;;1.13;;
15385;SDS011;7791;47.246;9.648;2023-05-10T06:35:51;1.73;;;1.30;;
15385;SDS011;7791;47.246;9.648;2023-05-10T06:38:26;1.70;;;1.20;;
15385;SDS011;7791;47.246;9.648;2023-05-10T06:40:56;2.43;;;1.20;;
15385;SDS011;7791;47.246;9.648;2023-05-10T06:43:28;1.97;;;0.90;;
15385;SDS011;7791;47.246;9.648;2023-05-10T06:46:01;0.60;;;0.60;;
15385;SDS011;7791;47.246;9.648;2023-05-10T06:48:33;1.63;;;0.80;;
15385;SDS011;7791;47.246;9.648;2023-05-10T06:51:21;3.27;;;0.90;;
15385;SDS011;7791;47.246;9.648;2023-05-10T06:54:09;4.67;;;1.97;;
15385;SDS011;7791;47.246;9.648;2023-05-10T06:56:43;1.17;;;0.70;;
15385;SDS011;7791;47.246;9.648;2023-05-10T06:59:14;0.90;;;0.80;;
15385;SDS011;7791;47.246;9.648;2023-05-10T07:01:49;1.00;;;0.70;;
15385;SDS011;7791;47.246;9.648;2023-05-10T07:04:26;2.40;;;0.80;;
15385;SDS011;7791;47.246;9.648;2023-05-10T07:06:55;1.07;;;0.80;;
15385;SDS011;7791;47.246;9.648;2023-05-10T07:09:23;1.83;;;0.50;;
15385;SDS011;7791;47.246;9.648;2023-05-10T07:11:59;1.73;;;0.80;;
15385;SDS011;7791;47.246;9.648;2023-05-10T07:14:30;1.57;;;0.80;;
15385;SDS011;7791;47.246;9.648;2023-05-10T07:17:06;1.30;;;1.00;;
15385;SDS011;7791;47.246;9.648;2023-05-10T07:19:44;1.83;;;0.60;;
15385;SDS011;7791;47.246;9.648;2023-05-10T07:22:12;2.33;;;0.57;;
15385;SDS011;7791;47.246;9.648;2023-05-10T07:24:43;0.50;;;0.47;;
15385;SDS011;7791;47.246;9.648;2023-05-10T07:27:16;2.43;;;0.60;;
15385;SDS011;7791;47.246;9.648;2023-05-10T07:29:47;0.83;;;0.30;;
15385;SDS011;7791;47.246;9.648;2023-05-10T07:32:16;0.93;;;0.47;;
15385;SDS011;7791;47.246;9.648;2023-05-10T07:34:52;2.00;;;0.50;;
15385;SDS011;7791;47.246;9.648;2023-05-10T07:37:34;1.20;;;0.30;;
15385;SDS011;7791;47.246;9.648;2023-05-10T07:42:47;1.73;;;0.43;;
15385;SDS011;7791;47.246;9.648;2023-05-10T07:45:21;1.00;;;0.70;;
15385;SDS011;7791;47.246;9.648;2023-05-10T07:50:40;1.10;;;0.60;;
15385;SDS011;7791;47.246;9.648;2023-05-10T07:53:09;3.33;;;0.50;;
15385;SDS011;7791;47.246;9.648;2023-05-10T07:55:42;0.83;;;0.60;;
15385;SDS011;7791;47.246;9.648;2023-05-10T07:58:20;3.07;;;2.00;;
15385;SDS011;7791;47.246;9.648;2023-05-10T08:00:49;2.93;;;2.30;;
15385;SDS011;7791;47.246;9.648;2023-05-10T08:03:46;1.70;;;1.27;;
15385;SDS011;7791;47.246;9.648;2023-05-10T08:06:19;1.10;;;0.70;;
15385;SDS011;7791;47.246;9.648;2023-05-10T08:08:53;1.27;;;0.50;;
15385;SDS011;7791;47.246;9.648;2023-05-10T08:11:36;0.40;;;0.30;;
15385;SDS011;7791;47.246;9.648;2023-05-10T08:14:18;1.50;;;1.00;;
15385;SDS011;7791;47.246;9.648;2023-05-10T08:16:48;2.97;;;1.23;;
15385;SDS011;7791;47.246;9.648;2023-05-10T08:19:21;1.00;;;0.70;;
15385;SDS011;7791;47.246;9.648;2023-05-10T08:22:06;0.93;;;0.50;;
15385;SDS011;7791;47.246;9.648;2023-05-10T08:24:38;2.50;;;0.80;;
15385;SDS011;7791;47.246;9.648;2023-05-10T08:27:12;1.00;;;0.50;;
15385;SDS011;7791;47.246;9.648;2023-05-10T08:29:44;2.93;;;0.70;;
15385;SDS011;7791;47.246;9.648;2023-05-10T08:32:22;1.63;;;0.40;;
15385;SDS011;7791;47.246;9.648;2023-05-10T08:34:55;0.53;;;0.40;;
15385;SDS011;7791;47.246;9.648;2023-05-10T08:37:29;0.93;;;0.30;;
15385;SDS011;7791;47.246;9.648;2023-05-10T08:40:04;0.60;;;0.30;;
15385;SDS011;7791;47.246;9.648;2023-05-10T08:42:36;1.00;;;0.30;;
15385;SDS011;7791;47.246;9.648;2023-05-10T08:45:17;0.97;;;0.40;;
15385;SDS011;7791;47.246;9.648;2023-05-10T08:47:59;1.93;;;0.50;;
15385;SDS011;7791;47.246;9.648;2023-05-10T08:50:53;0.93;;;0.30;;
15385;SDS011;7791;47.246;9.648;2023-05-10T08:53:32;0.60;;;0.50;;
15385;SDS011;7791;47.246;9.648;2023-05-10T08:56:16;0.80;;;0.47;;
15385;SDS011;7791;47.246;9.648;2023-05-10T08:58:53;0.40;;;0.30;;
15385;SDS011;7791;47.246;9.648;2023-05-10T09:01:25;1.13;;;0.50;;
15385;SDS011;7791;47.246;9.648;2023-05-10T09:04:00;0.80;;;0.40;;
15385;SDS011;7791;47.246;9.648;2023-05-10T09:06:34;1.67;;;0.40;;
15385;SDS011;7791;47.246;9.648;2023-05-10T09:09:04;0.80;;;0.50;;
15385;SDS011;7791;47.246;9.648;2023-05-10T09:11:55;0.40;;;0.40;;
15385;SDS011;7791;47.246;9.648;2023-05-10T09:14:25;1.23;;;0.60;;
15385;SDS011;7791;47.246;9.648;2023-05-10T09:17:00;2.00;;;0.57;;
15385;SDS011;7791;47.246;9.648;2023-05-10T09:19:41;0.50;;;0.37;;
15385;SDS011;7791;47.246;9.648;2023-05-10T09:25:09;0.87;;;0.67;;
15385;SDS011;7791;47.246;9.648;2023-05-10T09:27:48;0.67;;;0.47;;
15385;SDS011;7791;47.246;9.648;2023-05-10T09:30:23;0.40;;;0.40;;
15385;SDS011;7791;47.246;9.648;2023-05-10T09:33:06;1.80;;;0.30;;
15385;SDS011;7791;47.246;9.648;2023-05-10T09:38:46;0.40;;;0.30;;
15385;SDS011;7791;47.246;9.648;2023-05-10T09:44:06;0.50;;;0.47;;
15385;SDS011;7791;47.246;9.648;2023-05-10T09:46:35;0.80;;;0.30;;
15385;SDS011;7791;47.246;9.648;2023-05-10T09:49:05;0.87;;;0.40;;
15385;SDS011;7791;47.246;9.648;2023-05-10T09:51:45;0.90;;;0.53;;
15385;SDS011;7791;47.246;9.648;2023-05-10T09:54:33;0.33;;;0.30;;
15385;SDS011;7791;47.246;9.648;2023-05-10T09:57:15;0.57;;;0.47;;
15385;SDS011;7791;47.246;9.648;2023-05-10T09:59:59;0.70;;;0.50;;
15385;SDS011;7791;47.246;9.648;2023-05-10T10:02:40;0.40;;;0.40;;
15385;SDS011;7791;47.246;9.648;2023-05-10T10:05:39;0.50;;;0.47;;
15385;SDS011;7791;47.246;9.648;2023-05-10T10:08:06;0.83;;;0.47;;
15385;SDS011;7791;47.246;9.648;2023-05-10T10:10:43;0.30;;;0.30;;
15385;SDS011;7791;47.246;9.648;2023-05-10T10:13:21;0.60;;;0.40;;
15385;SDS011;7791;47.246;9.648;2023-05-10T10:15:53;0.43;;;0.40;;
15385;SDS011;7791;47.246;9.648;2023-05-10T10:18:24;0.33;;;0.20;;
15385;SDS011;7791;47.246;9.648;2023-05-10T10:20:54;0.83;;;0.40;;
15385;SDS011;7791;47.246;9.648;2023-05-10T10:23:33;0.77;;;0.43;;
15385;SDS011;7791;47.246;9.648;2023-05-10T10:29:17;1.33;;;0.80;;
15385;SDS011;7791;47.246;9.648;2023-05-10T10:31:56;1.00;;;0.50;;
15385;SDS011;7791;47.246;9.648;2023-05-10T10:34:42;0.70;;;0.50;;
15385;SDS011;7791;47.246;9.648;2023-05-10T10:37:13;2.63;;;0.50;;
15385;SDS011;7791;47.246;9.648;2023-05-10T10:39:50;0.73;;;0.50;;
15385;SDS011;7791;47.246;9.648;2023-05-10T10:45:15;0.37;;;0.33;;
15385;SDS011;7791;47.246;9.648;2023-05-10T10:47:47;0.30;;;0.30;;
15385;SDS011;7791;47.246;9.648;2023-05-10T10:50:44;2.93;;;1.27;;
15385;SDS011;7791;47.246;9.648;2023-05-10T10:53:23;2.63;;;0.93;;
15385;SDS011;7791;47.246;9.648;2023-05-10T10:56:02;1.50;;;1.40;;
15385;SDS011;7791;47.246;9.648;2023-05-10T10:58:48;1.83;;;0.73;;
15385;SDS011;7791;47.246;9.648;2023-05-10T11:01:27;0.60;;;0.30;;
15385;SDS011;7791;47.246;9.648;2023-05-10T11:04:19;1.23;;;0.30;;
15385;SDS011;7791;47.246;9.648;2023-05-10T11:10:06;0.80;;;0.33;;
15385;SDS011;7791;47.246;9.648;2023-05-10T11:12:32;0.50;;;0.40;;
15385;SDS011;7791;47.246;9.648;2023-05-10T11:15:36;0.13;;;0.13;;
15385;SDS011;7791;47.246;9.648;2023-05-10T11:18:23;0.50;;;0.50;;
15385;SDS011;7791;47.246;9.648;2023-05-10T11:20:56;0.57;;;0.20;;
15385;SDS011;7791;47.246;9.648;2023-05-10T11:23:31;1.40;;;0.23;;
15385;SDS011;7791;47.246;9.648;2023-05-10T11:29:12;1.27;;;0.57;;
15385;SDS011;7791;47.246;9.648;2023-05-10T11:31:49;0.30;;;0.30;;
15385;SDS011;7791;47.246;9.648;2023-05-10T11:35:05;0.33;;;0.30;;
15385;SDS011;7791;47.246;9.648;2023-05-10T11:37:47;1.00;;;0.30;;
15385;SDS011;7791;47.246;9.648;2023-05-10T11:40:28;0.27;;;0.23;;
15385;SDS011;7791;47.246;9.648;2023-05-10T11:43:02;0.40;;;0.33;;
15385;SDS011;7791;47.246;9.648;2023-05-10T11:45:41;1.27;;;0.40;;
15385;SDS011;7791;47.246;9.648;2023-05-10T11:48:16;0.90;;;0.30;;
15385;SDS011;7791;47.246;9.648;2023-05-10T11:50:49;0.50;;;0.30;;
15385;SDS011;7791;47.246;9.648;2023-05-10T11:53:22;0.20;;;0.20;;
15385;SDS011;7791;47.246;9.648;2023-05-10T11:56:02;0.30;;;0.20;;
15385;SDS011;7791;47.246;9.648;2023-05-10T11:58:33;0.97;;;0.20;;
15385;SDS011;7791;47.246;9.648;2023-05-10T12:01:09;0.83;;;0.30;;
15385;SDS011;7791;47.246;9.648;2023-05-10T12:03:39;0.50;;;0.37;;
15385;SDS011;7791;47.246;9.648;2023-05-10T12:09:08;0.77;;;0.20;;
15385;SDS011;7791;47.246;9.648;2023-05-10T12:11:48;0.67;;;0.30;;
15385;SDS011;7791;47.246;9.648;2023-05-10T12:14:20;2.73;;;0.50;;
15385;SDS011;7791;47.246;9.648;2023-05-10T12:17:04;1.20;;;0.30;;
15385;SDS011;7791;47.246;9.648;2023-05-10T12:19:39;0.20;;;0.20;;
15385;SDS011;7791;47.246;9.648;2023-05-10T12:22:17;1.50;;;0.30;;
15385;SDS011;7791;47.246;9.648;2023-05-10T12:24:55;0.30;;;0.20;;
15385;SDS011;7791;47.246;9.648;2023-05-10T12:27:23;0.87;;;0.27;;
15385;SDS011;7791;47.246;9.648;2023-05-10T12:30:00;0.43;;;0.30;;
15385;SDS011;7791;47.246;9.648;2023-05-10T12:35:17;2.33;;;0.67;;
15385;SDS011;7791;47.246;9.648;2023-05-10T12:37:54;0.20;;;0.20;;
15385;SDS011;7791;47.246;9.648;2023-05-10T12:40:50;0.73;;;0.30;;
15385;SDS011;7791;47.246;9.648;2023-05-10T12:43:22;0.23;;;0.23;;
15385;SDS011;7791;47.246;9.648;2023-05-10T12:46:09;0.87;;;0.40;;
15385;SDS011;7791;47.246;9.648;2023-05-10T12:48:43;0.47;;;0.30;;
15385;SDS011;7791;47.246;9.648;2023-05-10T12:51:30;0.43;;;0.30;;
15385;SDS011;7791;47.246;9.648;2023-05-10T12:54:12;0.50;;;0.40;;
15385;SDS011;7791;47.246;9.648;2023-05-10T12:56:45;3.27;;;0.90;;
15385;SDS011;7791;47.246;9.648;2023-05-10T12:59:46;1.27;;;0.70;;
15385;SDS011;7791;47.246;9.648;2023-05-10T13:02:15;0.50;;;0.50;;
15385;SDS011;7791;47.246;9.648;2023-05-10T13:04:58;0.93;;;0.50;;
15385;SDS011;7791;47.246;9.648;2023-05-10T13:10:38;2.40;;;0.67;;
15385;SDS011;7791;47.246;9.648;2023-05-10T13:13:15;0.60;;;0.50;;
15385;SDS011;7791;47.246;9.648;2023-05-10T13:15:57;0.70;;;0.53;;
15385;SDS011;7791;47.246;9.648;2023-05-10T13:18:38;1.07;;;0.60;;
15385;SDS011;7791;47.246;9.648;2023-05-10T13:26:38;0.40;;;0.37;;
15385;SDS011;7791;47.246;9.648;2023-05-10T13:29:11;0.30;;;0.20;;
15385;SDS011;7791;47.246;9.648;2023-05-10T13:31:44;1.77;;;0.33;;
15385;SDS011;7791;47.246;9.648;2023-05-10T13:34:15;0.60;;;0.47;;
15385;SDS011;7791;47.246;9.648;2023-05-10T13:36:45;0.40;;;0.30;;
15385;SDS011;7791;47.246;9.648;2023-05-10T13:39:18;0.70;;;0.40;;
15385;SDS011;7791;47.246;9.648;2023-05-10T13:41:45;1.00;;;0.70;;
15385;SDS011;7791;47.246;9.648;2023-05-10T13:44:17;1.23;;;0.50;;
15385;SDS011;7791;47.246;9.648;2023-05-10T13:46:56;0.80;;;0.50;;
15385;SDS011;7791;47.246;9.648;2023-05-10T13:49:35;1.80;;;0.57;;
15385;SDS011;7791;47.246;9.648;2023-05-10T13:52:08;0.90;;;0.70;;
15385;SDS011;7791;47.246;9.648;2023-05-10T13:54:45;0.60;;;0.50;;
15385;SDS011;7791;47.246;9.648;2023-05-10T13:57:33;0.90;;;0.50;;
15385;SDS011;7791;47.246;9.648;2023-05-10T14:00:08;1.20;;;0.53;;
15385;SDS011;7791;47.246;9.648;2023-05-10T14:02:48;1.83;;;0.40;;
15385;SDS011;7791;47.246;9.648;2023-05-10T14:05:17;0.40;;;0.40;;
15385;SDS011;7791;47.246;9.648;2023-05-10T14:07:49;1.27;;;0.47;;
15385;SDS011;7791;47.246;9.648;2023-05-10T14:10:32;2.53;;;0.33;;
15385;SDS011;7791;47.246;9.648;2023-05-10T14:13:06;0.50;;;0.30;;
15385;SDS011;7791;47.246;9.648;2023-05-10T14:15:36;0.60;;;0.40;;
15385;SDS011;7791;47.246;9.648;2023-05-10T14:18:16;0.30;;;0.30;;
15385;SDS011;7791;47.246;9.648;2023-05-10T14:20:49;1.70;;;0.53;;
15385;SDS011;7791;47.246;9.648;2023-05-10T14:23:17;1.40;;;0.40;;
15385;SDS011;7791;47.246;9.648;2023-05-10T14:25:56;0.43;;;0.30;;
15385;SDS011;7791;47.246;9.648;2023-05-10T14:28:28;0.40;;;0.40;;
15385;SDS011;7791;47.246;9.648;2023-05-10T14:31:00;0.60;;;0.43;;
15385;SDS011;7791;47.246;9.648;2023-05-10T14:33:36;0.67;;;0.43;;
15385;SDS011;7791;47.246;9.648;2023-05-10T14:36:04;0.63;;;0.30;;
15385;SDS011;7791;47.246;9.648;2023-05-10T14:38:40;1.57;;;0.50;;
15385;SDS011;7791;47.246;9.648;2023-05-10T14:41:08;0.60;;;0.50;;
15385;SDS011;7791;47.246;9.648;2023-05-10T14:43:46;1.13;;;0.60;;
15385;SDS011;7791;47.246;9.648;2023-05-10T14:46:20;1.63;;;1.07;;
15385;SDS011;7791;47.246;9.648;2023-05-10T14:48:48;1.43;;;0.90;;
15385;SDS011;7791;47.246;9.648;2023-05-10T14:51:27;1.40;;;0.83;;
15385;SDS011;7791;47.246;9.648;2023-05-10T14:54:09;1.50;;;0.70;;
15385;SDS011;7791;47.246;9.648;2023-05-10T14:56:46;0.70;;;0.53;;
15385;SDS011;7791;47.246;9.648;2023-05-10T14:59:21;0.90;;;0.60;;
15385;SDS011;7791;47.246;9.648;2023-05-10T15:01:58;1.10;;;0.80;;
15385;SDS011;7791;47.246;9.648;2023-05-10T15:07:22;2.73;;;1.07;;
15385;SDS011;7791;47.246;9.648;2023-05-10T15:12:45;1.80;;;0.90;;
15385;SDS011;7791;47.246;9.648;2023-05-10T15:15:14;2.43;;;1.10;;
15385;SDS011;7791;47.246;9.648;2023-05-10T15:17:45;1.83;;;0.90;;
15385;SDS011;7791;47.246;9.648;2023-05-10T15:20:15;1.40;;;0.97;;
15385;SDS011;7791;47.246;9.648;2023-05-10T15:23:02;1.10;;;0.70;;
15385;SDS011;7791;47.246;9.648;2023-05-10T15:25:36;2.87;;;0.90;;
15385;SDS011;7791;47.246;9.648;2023-05-10T15:33:40;1.50;;;1.07;;
15385;SDS011;7791;47.246;9.648;2023-05-10T15:36:09;1.30;;;0.93;;
15385;SDS011;7791;47.246;9.648;2023-05-10T15:38:53;6.10;;;1.40;;
15385;SDS011;7791;47.246;9.648;2023-05-10T15:41:32;3.20;;;0.90;;
15385;SDS011;7791;47.246;9.648;2023-05-10T15:44:06;3.73;;;1.07;;
15385;SDS011;7791;47.246;9.648;2023-05-10T15:46:45;2.47;;;1.10;;
15385;SDS011;7791;47.246;9.648;2023-05-10T15:52:06;2.23;;;1.10;;
15385;SDS011;7791;47.246;9.648;2023-05-10T15:54:34;2.80;;;1.00;;
15385;SDS011;7791;47.246;9.648;2023-05-10T15:57:04;2.27;;;1.23;;
15385;SDS011;7791;47.246;9.648;2023-05-10T15:59:50;2.07;;;1.20;;
15385;SDS011;7791;47.246;9.648;2023-05-10T16:02:48;1.43;;;1.10;;
15385;SDS011;7791;47.246;9.648;2023-05-10T16:05:23;2.53;;;1.30;;
15385;SDS011;7791;47.246;9.648;2023-05-10T16:07:53;3.33;;;1.37;;
15385;SDS011;7791;47.246;9.648;2023-05-10T16:10:39;1.37;;;1.10;;
15385;SDS011;7791;47.246;9.648;2023-05-10T16:13:18;1.77;;;1.00;;
15385;SDS011;7791;47.246;9.648;2023-05-10T16:15:54;2.70;;;1.13;;
15385;SDS011;7791;47.246;9.648;2023-05-10T16:18:20;2.40;;;1.30;;
15385;SDS011;7791;47.246;9.648;2023-05-10T16:20:45;3.53;;;1.20;;
15385;SDS011;7791;47.246;9.648;2023-05-10T16:23:11;1.50;;;1.23;;
15385;SDS011;7791;47.246;9.648;2023-05-10T16:25:38;2.63;;;1.27;;
15385;SDS011;7791;47.246;9.648;2023-05-10T16:28:03;2.13;;;1.20;;
15385;SDS011;7791;47.246;9.648;2023-05-10T16:30:29;2.37;;;1.10;;
15385;SDS011;7791;47.246;9.648;2023-05-10T16:32:57;1.40;;;1.10;;
15385;SDS011;7791;47.246;9.648;2023-05-10T16:35:24;1.40;;;1.10;;
15385;SDS011;7791;47.246;9.648;2023-05-10T16:37:50;1.97;;;1.00;;
15385;SDS011;7791;47.246;9.648;2023-05-10T16:40:16;1.93;;;1.10;;
15385;SDS011;7791;47.246;9.648;2023-05-10T16:42:44;3.53;;;1.00;;
15385;SDS011;7791;47.246;9.648;2023-05-10T16:45:10;1.27;;;0.90;;
15385;SDS011;7791;47.246;9.648;2023-05-10T16:47:37;2.20;;;1.10;;
15385;SDS011;7791;47.246;9.648;2023-05-10T16:50:08;1.57;;;1.00;;
15385;SDS011;7791;47.246;9.648;2023-05-10T16:52:36;1.40;;;0.80;;
15385;SDS011;7791;47.246;9.648;2023-05-10T16:55:07;1.00;;;0.70;;
15385;SDS011;7791;47.246;9.648;2023-05-10T16:57:33;1.47;;;1.10;;
15385;SDS011;7791;47.246;9.648;2023-05-10T16:59:59;1.33;;;1.00;;
15385;SDS011;7791;47.246;9.648;2023-05-10T17:02:25;2.50;;;1.27;;
15385;SDS011;7791;47.246;9.648;2023-05-10T17:04:50;2.37;;;1.37;;
15385;SDS011;7791;47.246;9.648;2023-05-10T17:07:18;3.87;;;3.00;;
15385;SDS011;7791;47.246;9.648;2023-05-10T17:09:43;5.10;;;4.63;;
15385;SDS011;7791;47.246;9.648;2023-05-10T17:12:09;2.83;;;2.23;;